createdAt,value
2023-03-06T00:01:00.381Z,77.10
2023-03-06T00:03:28.314Z,77.20
2023-03-06T00:05:59.190Z,77.10
2023-03-06T00:08:28.322Z,77.20
2023-03-06T00:10:56.572Z,77.40
2023-03-06T00:13:24.549Z,77.60
2023-03-06T00:15:51.932Z,77.80
2023-03-06T00:18:19.278Z,78.00
2023-03-06T00:20:46.586Z,78.00
2023-03-06T00:23:13.997Z,78.30
2023-03-06T00:25:45.678Z,78.50
2023-03-06T00:28:15.010Z,78.60
2023-03-06T00:30:43.479Z,78.70
2023-03-06T00:33:11.403Z,78.90
2023-03-06T00:35:40.114Z,78.90
2023-03-06T00:38:08.255Z,78.80
2023-03-06T00:40:35.617Z,78.80
2023-03-06T00:43:03.059Z,78.70
2023-03-06T00:45:30.527Z,78.70
2023-03-06T00:47:57.868Z,79.30
2023-03-06T00:50:25.160Z,78.80
2023-03-06T00:52:52.782Z,78.80
2023-03-06T00:55:20.068Z,79.00
2023-03-06T00:57:47.488Z,79.10
2023-03-06T01:00:15.281Z,79.00
2023-03-06T01:02:42.747Z,79.00
2023-03-06T01:05:10.486Z,78.90
2023-03-06T01:07:38.125Z,78.80
2023-03-06T01:10:08.280Z,78.80
2023-03-06T01:12:35.865Z,78.80
2023-03-06T01:15:04.004Z,78.80
2023-03-06T01:17:31.415Z,78.70
2023-03-06T01:19:58.823Z,78.70
2023-03-06T01:22:26.219Z,78.70
2023-03-06T01:24:53.582Z,78.80
2023-03-06T01:27:22.076Z,78.80
2023-03-06T01:29:49.350Z,78.80
2023-03-06T01:32:16.676Z,78.90
2023-03-06T01:34:43.977Z,78.90
2023-03-06T01:37:11.364Z,79.00
2023-03-06T01:39:38.686Z,79.00
2023-03-06T01:42:06.415Z,79.00
2023-03-06T01:44:34.030Z,79.00
2023-03-06T01:47:02.586Z,79.00
2023-03-06T01:49:36.876Z,79.00
2023-03-06T01:52:09.547Z,79.10
2023-03-06T01:54:40.020Z,79.20
2023-03-06T01:57:15.186Z,79.00
2023-03-06T01:59:43.333Z,79.10
2023-03-06T02:02:12.671Z,79.20
2023-03-06T02:04:41.409Z,79.20
2023-03-06T02:07:09.560Z,79.20
2023-03-06T02:09:38.246Z,79.30
2023-03-06T02:12:11.548Z,79.30
2023-03-06T02:14:40.152Z,79.40
2023-03-06T02:17:10.032Z,79.30
2023-03-06T02:20:04.245Z,79.40
2023-03-06T02:22:55.457Z,79.40
2023-03-06T02:25:33.804Z,79.30
2023-03-06T02:28:01.948Z,79.40
2023-03-06T02:30:30.269Z,79.40
2023-03-06T02:32:58.928Z,79.50
2023-03-06T02:35:38.593Z,79.50
2023-03-06T02:38:13.856Z,79.60
2023-03-06T02:40:43.846Z,79.60
2023-03-06T02:43:12.667Z,79.60
2023-03-06T02:45:45.395Z,79.60
2023-03-06T02:48:14.892Z,79.60
2023-03-06T02:50:43.204Z,79.60
2023-03-06T02:53:12.101Z,79.50
2023-03-06T02:55:39.736Z,79.60
2023-03-06T02:58:07.603Z,79.50
2023-03-06T03:00:35.728Z,79.50
2023-03-06T03:03:05.952Z,79.50
2023-03-06T03:05:33.481Z,79.50
2023-03-06T03:08:08.523Z,79.40
2023-03-06T03:10:36.164Z,79.40
2023-03-06T03:13:03.581Z,79.50
2023-03-06T03:15:33.081Z,79.40
2023-03-06T03:18:00.414Z,79.40
2023-03-06T03:20:27.782Z,79.40
2023-03-06T03:22:56.910Z,79.50
2023-03-06T03:25:26.138Z,79.50
2023-03-06T03:27:56.145Z,79.50
2023-03-06T03:30:23.940Z,79.50
2023-03-06T03:32:51.515Z,79.60
2023-03-06T03:35:20.146Z,79.60
2023-03-06T03:37:47.946Z,79.60
2023-03-06T03:40:15.515Z,79.60
2023-03-06T03:42:42.887Z,79.60
2023-03-06T03:45:11.702Z,79.60
2023-03-06T03:47:40.710Z,79.70
2023-03-06T03:50:08.989Z,79.70
2023-03-06T03:52:37.361Z,79.70
2023-03-06T03:55:05.848Z,79.70
2023-03-06T03:57:33.254Z,79.80
2023-03-06T04:00:01.242Z,79.80
2023-03-06T04:02:52.879Z,79.90
2023-03-06T04:05:27.256Z,79.90
2023-03-06T04:07:54.847Z,80.00
2023-03-06T04:10:22.322Z,80.10
2023-03-06T04:12:50.951Z,80.20
2023-03-06T04:15:18.520Z,80.20
2023-03-06T04:17:47.692Z,80.20
2023-03-06T04:20:18.961Z,80.20
2023-03-06T04:22:47.462Z,80.30
2023-03-06T04:25:15.242Z,80.30
2023-03-06T04:27:42.585Z,80.30
2023-03-06T04:30:11.798Z,80.40
2023-03-06T04:32:39.155Z,80.30
2023-03-06T04:35:06.822Z,80.30
2023-03-06T04:37:40.244Z,80.30
2023-03-06T04:40:09.565Z,80.40
2023-03-06T04:42:36.901Z,80.30
2023-03-06T04:45:04.350Z,80.40
2023-03-06T04:47:31.623Z,80.40
2023-03-06T04:49:58.919Z,80.40
2023-03-06T04:52:26.233Z,80.40
2023-03-06T04:54:53.501Z,80.40
2023-03-06T04:57:20.930Z,80.40
2023-03-06T04:59:49.741Z,80.50
2023-03-06T05:02:17.907Z,80.50
2023-03-06T05:04:45.228Z,80.60
2023-03-06T05:07:12.825Z,80.60
2023-03-06T05:09:40.215Z,80.60
2023-03-06T05:12:07.906Z,80.60
2023-03-06T05:14:35.196Z,80.60
2023-03-06T05:17:02.646Z,80.60
2023-03-06T05:19:30.736Z,80.60
2023-03-06T05:21:58.042Z,80.50
2023-03-06T05:24:25.265Z,80.50
2023-03-06T05:26:52.591Z,80.50
2023-03-06T05:29:19.941Z,80.40
2023-03-06T05:31:47.621Z,80.40
2023-03-06T05:34:22.677Z,80.50
2023-03-06T05:36:50.001Z,80.40
2023-03-06T05:39:17.235Z,80.40
2023-03-06T05:41:44.480Z,80.40
2023-03-06T05:44:11.720Z,80.40
2023-03-06T05:46:39.004Z,80.40
2023-03-06T05:49:06.262Z,80.50
2023-03-06T05:51:33.524Z,80.40
2023-03-06T05:54:00.883Z,80.50
2023-03-06T05:56:28.419Z,80.50
2023-03-06T05:58:55.752Z,80.50
2023-03-06T06:01:23.053Z,80.50
2023-03-06T06:03:50.500Z,80.50
2023-03-06T06:06:17.828Z,80.60
2023-03-06T06:08:45.051Z,80.60
2023-03-06T06:11:13.608Z,80.60
2023-03-06T06:13:41.252Z,80.70
2023-03-06T06:16:15.990Z,80.60
2023-03-06T06:18:43.812Z,80.70
2023-03-06T06:21:12.775Z,80.70
2023-03-06T06:23:40.450Z,80.80
2023-03-06T06:26:09.468Z,80.80
2023-03-06T06:28:36.957Z,80.80
2023-03-06T06:31:12.461Z,80.90
2023-03-06T06:33:40.881Z,80.90
2023-03-06T06:36:16.926Z,80.90
2023-03-06T06:38:44.338Z,80.90
2023-03-06T06:41:38.829Z,81.00
2023-03-06T06:43:59.254Z,81.00
2023-03-06T06:47:17.885Z,81.00
2023-03-06T06:49:15.508Z,81.00
2023-03-06T06:51:42.783Z,81.00
2023-03-06T06:54:11.523Z,81.60
2023-03-06T06:56:39.077Z,81.10
2023-03-06T06:59:15.982Z,81.10
2023-03-06T07:01:43.784Z,81.10
2023-03-06T07:04:14.917Z,81.20
2023-03-06T07:06:43.075Z,81.20
2023-03-06T07:09:10.839Z,81.20
2023-03-06T07:11:39.370Z,81.30
2023-03-06T07:14:06.685Z,81.40
2023-03-06T07:16:34.403Z,81.40
2023-03-06T07:19:01.894Z,81.50
2023-03-06T07:21:29.248Z,81.50
2023-03-06T07:23:57.694Z,81.50
2023-03-06T07:26:28.553Z,81.60
2023-03-06T07:28:55.949Z,81.60
2023-03-06T07:31:26.487Z,81.70
2023-03-06T07:33:55.287Z,81.80
2023-03-06T07:36:24.230Z,81.90
2023-03-06T07:38:51.609Z,81.90
2023-03-06T07:41:22.182Z,81.80
2023-03-06T07:43:50.413Z,81.90
2023-03-06T07:46:18.052Z,81.90
2023-03-06T07:48:45.694Z,81.80
2023-03-06T07:51:16.139Z,81.80
2023-03-06T07:53:43.762Z,81.80
2023-03-06T07:56:12.160Z,81.90
2023-03-06T07:58:41.967Z,81.90
2023-03-06T08:01:12.710Z,81.60
2023-03-06T08:03:40.239Z,81.50
2023-03-06T08:06:12.021Z,81.00
2023-03-06T08:08:41.569Z,80.90
2023-03-06T08:11:11.036Z,80.90
2023-03-06T08:13:39.176Z,80.70
2023-03-06T08:16:07.572Z,80.60
2023-03-06T08:18:35.394Z,80.70
2023-03-06T08:21:09.695Z,80.60
2023-03-06T08:23:37.856Z,80.00
2023-03-06T08:26:12.424Z,79.70
2023-03-06T08:28:39.806Z,79.80
2023-03-06T08:31:39.321Z,79.80
2023-03-06T08:34:12.702Z,79.70
2023-03-06T08:36:40.206Z,79.90
2023-03-06T08:39:08.304Z,80.10
2023-03-06T08:41:36.580Z,80.10
2023-03-06T08:44:04.192Z,80.10
2023-03-06T08:46:32.700Z,80.20
2023-03-06T08:49:00.002Z,80.20
2023-03-06T08:51:29.159Z,80.30
2023-03-06T08:53:58.368Z,80.40
2023-03-06T08:56:32.490Z,80.60
2023-03-06T08:59:02.103Z,80.60
2023-03-06T09:01:36.932Z,80.70
2023-03-06T09:04:11.643Z,80.60
2023-03-06T09:06:43.577Z,80.50
2023-03-06T09:09:11.441Z,80.30
2023-03-06T09:11:39.098Z,80.30
2023-03-06T09:14:06.602Z,80.20
2023-03-06T09:16:33.988Z,80.20
2023-03-06T09:19:01.522Z,80.10
2023-03-06T09:21:28.921Z,80.10
2023-03-06T09:23:56.394Z,80.10
2023-03-06T09:26:32.853Z,80.00
2023-03-06T09:29:08.020Z,80.00
2023-03-06T09:31:35.356Z,79.80
2023-03-06T09:34:02.612Z,79.80
2023-03-06T09:36:29.923Z,79.60
2023-03-06T09:38:57.194Z,80.10
2023-03-06T09:41:34.593Z,79.30
2023-03-06T09:44:14.877Z,78.80
2023-03-06T09:47:26.068Z,78.90
2023-03-06T09:50:34.498Z,79.00
2023-03-06T09:53:25.579Z,79.10
2023-03-06T09:56:10.096Z,79.20
2023-03-06T09:58:53.772Z,79.10
2023-03-06T10:01:35.312Z,79.60
2023-03-06T10:04:33.441Z,79.00
2023-03-06T10:07:19.199Z,79.10
2023-03-06T10:10:07.489Z,79.00
2023-03-06T10:12:41.398Z,78.80
2023-03-06T10:15:11.871Z,78.40
2023-03-06T10:17:41.305Z,79.20
2023-03-06T10:20:22.812Z,78.50
2023-03-06T10:23:16.437Z,78.20
2023-03-06T10:26:08.650Z,77.90
2023-03-06T10:28:47.369Z,77.60
2023-03-06T10:31:26.566Z,77.60
2023-03-06T10:34:19.611Z,77.20
2023-03-06T10:36:46.853Z,76.50
2023-03-06T10:39:20.001Z,76.80
2023-03-06T10:41:49.007Z,76.20
2023-03-06T10:44:16.178Z,76.60
2023-03-06T10:46:48.688Z,76.30
2023-03-06T10:49:34.675Z,76.20
2023-03-06T10:52:22.147Z,75.50
2023-03-06T10:54:49.539Z,74.60
2023-03-06T10:57:19.726Z,74.90
2023-03-06T11:00:02.787Z,74.30
2023-03-06T11:02:38.633Z,74.30
2023-03-06T11:05:17.914Z,74.90
2023-03-06T11:07:57.650Z,74.40
2023-03-06T11:10:25.791Z,74.50
2023-03-06T11:13:19.352Z,74.80
2023-03-06T11:16:06.911Z,74.60
2023-03-06T11:18:42.962Z,74.30
2023-03-06T11:21:32.040Z,74.10
2023-03-06T11:24:18.973Z,74.60
2023-03-06T11:26:57.497Z,73.70
2023-03-06T11:29:42.639Z,72.80
2023-03-06T11:32:12.507Z,72.80
2023-03-06T11:34:39.796Z,73.10
2023-03-06T11:37:29.360Z,72.30
2023-03-06T11:40:11.993Z,72.20
2023-03-06T11:43:07.448Z,72.00
2023-03-06T11:46:25.349Z,71.90
2023-03-06T11:48:58.504Z,72.40
2023-03-06T11:51:33.385Z,72.70
2023-03-06T11:54:01.439Z,72.50
2023-03-06T11:57:08.404Z,72.60
2023-03-06T12:00:14.876Z,72.50
2023-03-06T12:02:43.186Z,72.60
2023-03-06T12:05:13.496Z,72.90
2023-03-06T12:07:57.476Z,73.00
2023-03-06T12:10:51.738Z,73.30
2023-03-06T12:16:27.017Z,73.00
2023-03-06T12:19:13.025Z,72.00
2023-03-06T12:22:03.576Z,72.30
2023-03-06T12:25:07.080Z,71.20
2023-03-06T12:27:59.072Z,70.20
2023-03-06T12:30:32.223Z,70.70
2023-03-06T12:33:20.638Z,70.50
2023-03-06T12:35:58.598Z,70.70
2023-03-06T12:38:53.554Z,70.60
2023-03-06T12:41:47.897Z,71.10
2023-03-06T12:44:33.855Z,71.30
2023-03-06T12:47:10.245Z,70.10
2023-03-06T12:49:42.389Z,67.30
2023-03-06T12:52:21.661Z,66.60
2023-03-06T12:54:53.330Z,67.10
2023-03-06T12:57:25.046Z,67.70
2023-03-06T12:59:53.777Z,67.80
2023-03-06T13:03:05.400Z,67.10
2023-03-06T13:06:07.878Z,67.20
2023-03-06T13:08:56.817Z,67.10
2023-03-06T13:11:51.669Z,66.30
2023-03-06T13:14:48.801Z,65.00
2023-03-06T13:17:21.162Z,65.40
2023-03-06T13:19:49.238Z,66.70
2023-03-06T13:22:43.885Z,65.20
2023-03-06T13:25:20.131Z,64.30
2023-03-06T13:28:03.288Z,64.40
2023-03-06T13:30:39.650Z,63.50
2023-03-06T13:33:27.678Z,62.20
2023-03-06T13:35:57.281Z,61.10
2023-03-06T13:38:44.902Z,63.00
2023-03-06T13:41:21.435Z,63.60
2023-03-06T13:43:54.217Z,61.80
2023-03-06T13:46:35.438Z,61.80
2023-03-06T13:49:08.666Z,61.90
2023-03-06T13:51:38.598Z,60.80
2023-03-06T13:54:26.299Z,62.00
2023-03-06T13:57:28.980Z,62.90
2023-03-06T14:00:20.716Z,61.10
2023-03-06T14:03:09.540Z,60.90
2023-03-06T14:05:50.117Z,59.80
2023-03-06T14:08:24.208Z,60.00
2023-03-06T14:11:27.465Z,60.30
2023-03-06T14:13:57.083Z,61.10
2023-03-06T14:16:29.074Z,59.50
2023-03-06T14:18:59.394Z,59.70
2023-03-06T14:21:38.381Z,58.70
2023-03-06T14:24:06.329Z,59.20
2023-03-06T14:26:41.585Z,60.90
2023-03-06T14:29:20.079Z,60.40
2023-03-06T14:31:51.040Z,60.20
2023-03-06T14:34:30.562Z,60.80
2023-03-06T14:37:05.607Z,60.60
2023-03-06T14:39:43.398Z,60.40
2023-03-06T14:42:19.974Z,60.50
2023-03-06T14:44:48.736Z,60.80
2023-03-06T14:47:42.207Z,61.70
2023-03-06T14:50:27.456Z,62.20
2023-03-06T14:52:56.558Z,61.70
2023-03-06T14:55:29.021Z,61.50
2023-03-06T14:58:15.683Z,61.30
2023-03-06T15:00:46.146Z,60.50
2023-03-06T15:03:24.242Z,60.70
2023-03-06T15:05:52.380Z,60.30
2023-03-06T15:08:27.591Z,60.80
2023-03-06T15:10:58.709Z,61.40
2023-03-06T15:13:29.285Z,59.80
2023-03-06T15:15:56.495Z,61.10
2023-03-06T15:18:39.331Z,61.60
2023-03-06T15:21:09.240Z,61.70
2023-03-06T15:23:45.511Z,61.90
2023-03-06T15:26:33.410Z,61.60
2023-03-06T15:29:10.822Z,61.00
2023-03-06T15:31:43.850Z,61.10
2023-03-06T15:34:23.619Z,61.90
2023-03-06T15:36:56.543Z,62.00
2023-03-06T15:39:38.896Z,61.90
2023-03-06T15:42:26.552Z,62.10
2023-03-06T15:45:00.191Z,62.30
2023-03-06T15:47:27.538Z,62.20
2023-03-06T15:49:55.213Z,62.10
2023-03-06T15:52:22.982Z,62.40
2023-03-06T15:54:50.356Z,62.30
2023-03-06T15:57:27.026Z,62.60
2023-03-06T15:59:57.187Z,62.70
2023-03-06T16:02:25.139Z,62.70
2023-03-06T16:04:52.878Z,62.50
2023-03-06T16:07:36.886Z,62.60
2023-03-06T16:10:04.570Z,63.10
2023-03-06T16:12:31.945Z,63.50
2023-03-06T16:15:01.842Z,63.70
2023-03-06T16:17:29.161Z,64.30
2023-03-06T16:19:56.410Z,64.60
2023-03-06T16:22:23.679Z,64.90
2023-03-06T16:24:51.317Z,65.30
2023-03-06T16:27:19.925Z,65.50
2023-03-06T16:29:47.852Z,65.80
2023-03-06T16:32:15.122Z,66.10
2023-03-06T16:34:42.445Z,66.30
2023-03-06T16:37:13.068Z,66.60
2023-03-06T16:39:40.340Z,66.80
2023-03-06T16:42:07.767Z,67.10
2023-03-06T16:44:35.004Z,67.40
2023-03-06T16:47:02.381Z,67.70
2023-03-06T16:49:29.757Z,68.30
2023-03-06T16:51:57.029Z,69.20
2023-03-06T16:54:26.319Z,69.40
2023-03-06T16:56:53.688Z,69.60
2023-03-06T16:59:20.912Z,69.60
2023-03-06T17:01:48.171Z,69.70
2023-03-06T17:04:15.560Z,69.80
2023-03-06T17:06:43.325Z,70.30
2023-03-06T17:09:11.182Z,70.60
2023-03-06T17:11:38.898Z,70.90
2023-03-06T17:14:07.128Z,71.30
2023-03-06T17:16:37.183Z,71.30
2023-03-06T17:19:04.571Z,71.40
2023-03-06T17:21:31.916Z,71.70
2023-03-06T17:24:01.783Z,72.00
2023-03-06T17:26:29.240Z,72.10
2023-03-06T17:28:56.636Z,72.60
2023-03-06T17:31:27.160Z,72.70
2023-03-06T17:34:02.138Z,72.80
2023-03-06T17:36:31.638Z,73.40
2023-03-06T17:39:00.746Z,73.40
2023-03-06T17:41:28.849Z,73.60
2023-03-06T17:43:56.743Z,73.60
2023-03-06T17:46:24.086Z,73.50
2023-03-06T17:48:51.332Z,73.80
2023-03-06T17:51:18.602Z,74.20
2023-03-06T17:53:46.108Z,74.70
2023-03-06T17:56:15.219Z,74.80
2023-03-06T17:58:42.857Z,75.30
2023-03-06T18:01:18.417Z,75.20
2023-03-06T18:03:48.410Z,75.20
2023-03-06T18:06:17.181Z,75.30
2023-03-06T18:08:45.969Z,75.70
2023-03-06T18:11:13.982Z,75.80
2023-03-06T18:13:42.953Z,75.60
2023-03-06T18:16:13.199Z,75.80
2023-03-06T18:18:41.806Z,76.00
2023-03-06T18:21:11.694Z,76.30
2023-03-06T18:23:39.907Z,76.20
2023-03-06T18:26:13.365Z,76.40
2023-03-06T18:28:42.668Z,76.60
2023-03-06T18:31:24.619Z,76.60
2023-03-06T18:33:56.675Z,76.70
2023-03-06T18:36:27.238Z,76.80
2023-03-06T18:38:55.087Z,77.10
2023-03-06T18:41:23.785Z,77.30
2023-03-06T18:43:55.883Z,77.30
2023-03-06T18:46:24.897Z,78.20
2023-03-06T18:48:52.459Z,77.50
2023-03-06T18:51:20.372Z,77.50
2023-03-06T18:53:49.111Z,77.50
2023-03-06T18:56:20.838Z,77.70
2023-03-06T18:58:48.880Z,77.90
2023-03-06T19:01:16.562Z,77.90
2023-03-06T19:03:47.121Z,77.90
2023-03-06T19:06:18.394Z,78.10
2023-03-06T19:08:48.739Z,78.20
2023-03-06T19:11:17.554Z,77.90
2023-03-06T19:13:45.157Z,78.80
2023-03-06T19:16:21.208Z,78.90
2023-03-06T19:18:49.374Z,79.00
2023-03-06T19:21:19.837Z,78.50
2023-03-06T19:23:48.310Z,79.00
2023-03-06T19:26:16.357Z,79.10
2023-03-06T19:28:44.706Z,79.40
2023-03-06T19:31:28.034Z,79.20
2023-03-06T19:33:59.508Z,79.30
2023-03-06T19:36:33.304Z,79.40
2023-03-06T19:39:03.740Z,79.40
2023-03-06T19:41:31.155Z,79.30
2023-03-06T19:44:02.338Z,79.60
2023-03-06T19:46:30.237Z,79.30
2023-03-06T19:49:02.727Z,79.50
2023-03-06T19:51:31.383Z,79.60
2023-03-06T19:53:58.674Z,79.60
2023-03-06T19:56:29.220Z,79.70
2023-03-06T19:58:56.754Z,79.50
2023-03-06T20:01:26.726Z,79.90
2023-03-06T20:03:59.051Z,79.90
2023-03-06T20:06:31.458Z,80.00
2023-03-06T20:08:59.339Z,79.90
2023-03-06T20:11:33.361Z,79.70
2023-03-06T20:14:03.101Z,80.00
2023-03-06T20:16:32.518Z,80.00
2023-03-06T20:19:01.882Z,80.10
2023-03-06T20:21:38.234Z,80.10
2023-03-06T20:24:08.802Z,80.20
2023-03-06T20:26:38.671Z,80.00
2023-03-06T20:29:11.444Z,79.90
2023-03-06T20:31:40.944Z,80.10
2023-03-06T20:34:10.908Z,79.90
2023-03-06T20:36:40.647Z,80.20
2023-03-06T20:39:12.682Z,80.10
2023-03-06T20:41:42.728Z,80.10
2023-03-06T20:44:13.878Z,80.20
2023-03-06T20:46:41.298Z,80.20
2023-03-06T20:49:10.882Z,80.30
2023-03-06T20:51:41.282Z,80.30
2023-03-06T20:54:11.607Z,80.30
2023-03-06T20:56:41.214Z,80.20
2023-03-06T20:59:11.713Z,80.40
2023-03-06T21:01:41.941Z,80.40
2023-03-06T21:04:11.789Z,80.30
2023-03-06T21:06:39.816Z,80.50
2023-03-06T21:09:07.513Z,80.40
2023-03-06T21:11:35.844Z,80.30
2023-03-06T21:14:03.799Z,80.20
2023-03-06T21:16:31.185Z,80.30
2023-03-06T21:19:00.197Z,80.30
2023-03-06T21:21:30.796Z,80.30
2023-03-06T21:23:58.502Z,80.40
2023-03-06T21:26:28.915Z,80.40
2023-03-06T21:29:01.658Z,80.80
2023-03-06T21:31:28.889Z,81.00
2023-03-06T21:33:56.980Z,81.60
2023-03-06T21:36:24.458Z,81.70
2023-03-06T21:38:52.729Z,81.90
2023-03-06T21:41:24.883Z,81.90
2023-03-06T21:44:00.490Z,81.80
2023-03-06T21:46:28.480Z,81.90
2023-03-06T21:48:56.821Z,81.80
2023-03-06T21:51:25.365Z,81.80
2023-03-06T21:53:54.100Z,81.60
2023-03-06T21:56:24.049Z,81.80
2023-03-06T21:58:51.816Z,82.00
2023-03-06T22:01:21.998Z,81.70
2023-03-06T22:03:49.354Z,81.70
2023-03-06T22:06:22.330Z,81.80
2023-03-06T22:08:50.050Z,81.70
2023-03-06T22:11:19.911Z,81.60
2023-03-06T22:13:48.327Z,81.80
2023-03-06T22:16:15.939Z,81.50
2023-03-06T22:18:47.841Z,82.00
2023-03-06T22:21:16.997Z,82.20
2023-03-06T22:23:44.567Z,82.30
2023-03-06T22:26:13.727Z,82.20
2023-03-06T22:28:41.931Z,82.20
2023-03-06T22:31:11.719Z,82.00
2023-03-06T22:33:39.308Z,82.10
2023-03-06T22:36:09.381Z,82.30
2023-03-06T22:38:38.763Z,82.10
2023-03-06T22:41:07.497Z,82.10
2023-03-06T22:43:35.484Z,81.90
2023-03-06T22:46:15.117Z,82.00
2023-03-06T22:48:43.087Z,81.90
2023-03-06T22:51:13.088Z,81.90
2023-03-06T22:53:40.847Z,81.90
2023-03-06T22:56:11.006Z,81.70
2023-03-06T22:58:38.718Z,81.80
2023-03-06T23:01:21.061Z,81.70
2023-03-06T23:03:50.682Z,81.70
2023-03-06T23:06:20.733Z,81.70
2023-03-06T23:09:04.715Z,81.70
2023-03-06T23:11:32.639Z,81.70
2023-03-06T23:14:19.607Z,81.80
2023-03-06T23:17:05.778Z,82.50
2023-03-06T23:19:51.580Z,81.90
2023-03-06T23:22:37.567Z,81.90
2023-03-06T23:25:23.693Z,81.90
2023-03-06T23:27:51.893Z,82.10
2023-03-06T23:30:19.287Z,82.00
2023-03-06T23:32:46.573Z,82.00
2023-03-06T23:35:14.164Z,82.10
2023-03-06T23:37:41.565Z,82.00
2023-03-06T23:40:09.769Z,82.00
2023-03-06T23:42:37.232Z,81.90
2023-03-06T23:45:05.386Z,81.90
2023-03-06T23:47:34.761Z,81.90
2023-03-06T23:50:02.124Z,82.00
2023-03-06T23:52:29.439Z,81.90
2023-03-06T23:54:56.655Z,82.00
2023-03-06T23:57:24.085Z,82.10
2023-03-06T23:59:51.434Z,82.00
